createdAt,value
2018-02-21T00:31:53.937Z,40.90
2018-02-21T00:32:56.454Z,42.03
2018-02-21T00:34:41.086Z,44.58
2018-02-21T00:35:43.233Z,48.60
2018-02-21T00:36:44.661Z,44.72
2018-02-21T00:37:47.288Z,45.90
2018-02-21T00:38:50.339Z,47.67
2018-02-21T00:39:54.975Z,46.53
2018-02-21T00:40:56.917Z,44.63
2018-02-21T00:41:58.993Z,44.35
2018-02-21T00:43:23.857Z,47.10
2018-02-21T00:44:26.529Z,48.70
2018-02-21T00:45:28.540Z,46.90
2018-02-21T00:46:30.107Z,46.03
2018-02-21T00:47:31.494Z,46.03
2018-02-21T00:48:32.896Z,49.63
2018-02-21T00:49:34.290Z,49.33
2018-02-21T00:50:35.675Z,51.42
2018-02-21T00:51:37.079Z,52.08
2018-02-21T00:52:38.510Z,54.05
2018-02-21T00:53:41.043Z,47.87
2018-02-21T00:54:42.453Z,46.72
2018-02-21T00:55:43.851Z,44.27
2018-02-21T00:56:46.746Z,46.53
2018-02-21T00:57:48.322Z,43.38
2018-02-21T00:58:53.791Z,44.80
2018-02-21T00:59:56.959Z,41.72
2018-02-21T01:00:58.681Z,42.87
2018-02-21T01:02:01.229Z,45.40
2018-02-21T01:03:02.637Z,45.22
2018-02-21T01:05:09.613Z,45.30
2018-02-21T01:06:11.021Z,45.30
2018-02-21T01:07:12.413Z,44.33
2018-02-21T01:08:13.815Z,42.33
2018-02-21T01:09:17.835Z,49.57
2018-02-21T01:10:19.613Z,44.50
2018-02-21T01:11:24.364Z,45.72
2018-02-21T01:12:26.645Z,47.30
2018-02-21T01:13:28.623Z,44.10
2018-02-21T01:14:30.162Z,45.47
2018-02-21T01:15:31.611Z,43.90
2018-02-21T01:16:32.999Z,46.70
2018-02-21T01:17:34.413Z,46.40
2018-02-21T01:18:36.925Z,48.15
2018-02-21T01:19:38.315Z,53.70
2018-02-21T01:20:39.988Z,52.95
2018-02-21T01:21:41.393Z,50.53
2018-02-21T01:22:42.780Z,47.10
2018-02-21T01:23:46.472Z,48.28
2018-02-21T01:24:48.027Z,48.53
2018-02-21T01:25:51.035Z,49.42
2018-02-21T01:26:55.352Z,51.72
2018-02-21T01:27:57.130Z,53.63
2018-02-21T01:28:59.011Z,49.80
2018-02-21T01:30:01.183Z,51.80
2018-02-21T01:31:02.887Z,50.60
2018-02-21T01:32:04.302Z,47.93
2018-02-21T01:33:05.703Z,48.17
2018-02-21T01:34:07.854Z,45.90
2018-02-21T01:35:09.269Z,51.95
2018-02-21T01:36:10.675Z,51.65
2018-02-21T01:37:12.816Z,52.47
2018-02-21T01:38:15.213Z,48.90
2018-02-21T01:39:17.272Z,51.53
2018-02-21T01:40:20.363Z,48.20
2018-02-21T01:41:25.023Z,49.78
2018-02-21T01:42:27.766Z,46.87
2018-02-21T01:43:29.649Z,49.15
2018-02-21T01:44:31.067Z,48.05
2018-02-21T01:45:32.465Z,45.97
2018-02-21T01:46:34.619Z,46.37
2018-02-21T01:47:36.039Z,47.05
2018-02-21T01:48:37.432Z,46.83
2018-02-21T01:49:39.584Z,45.05
2018-02-21T01:50:54.083Z,50.60
2018-02-21T01:51:56.317Z,48.63
2018-02-21T01:52:59.655Z,46.40
2018-02-21T01:54:01.799Z,45.12
2018-02-21T01:55:03.219Z,40.57
2018-02-21T01:56:06.114Z,37.85
2018-02-21T01:57:07.552Z,39.90
2018-02-21T01:58:08.955Z,42.05
2018-02-21T01:59:10.353Z,42.90
2018-02-21T02:00:11.747Z,43.38
2018-02-21T02:01:13.191Z,49.78
2018-02-21T02:02:15.341Z,41.80
2018-02-21T02:04:07.397Z,38.22
2018-02-21T02:05:08.811Z,45.90
2018-02-21T02:06:10.963Z,39.88
2018-02-21T02:07:13.118Z,44.70
2018-02-21T02:08:15.607Z,38.13
2018-02-21T02:09:39.262Z,39.38
2018-02-21T02:10:41.413Z,43.38
2018-02-21T02:11:42.829Z,34.90
2018-02-21T02:12:45.590Z,40.47
2018-02-21T02:13:47.642Z,38.22
2018-02-21T02:14:49.039Z,37.83
2018-02-21T02:15:53.092Z,43.22
2018-02-21T02:16:56.230Z,38.03
2018-02-21T02:17:58.203Z,38.38
2018-02-21T02:19:00.198Z,36.47
2018-02-21T02:20:02.464Z,35.70
2018-02-21T02:21:04.639Z,40.60
2018-02-21T02:22:07.745Z,37.58
2018-02-21T02:23:39.274Z,36.90
2018-02-21T02:24:41.685Z,36.80
2018-02-21T02:25:44.337Z,36.58
2018-02-21T02:26:47.736Z,33.20
2018-02-21T02:27:49.126Z,38.53
2018-02-21T02:28:54.152Z,35.90
2018-02-21T02:29:56.985Z,39.22
2018-02-21T02:30:58.990Z,39.10
2018-02-21T02:32:00.435Z,37.53
2018-02-21T02:33:01.847Z,39.00
2018-02-21T02:34:04.360Z,36.72
2018-02-21T02:35:06.057Z,37.53
2018-02-21T02:36:07.424Z,39.05
2018-02-21T02:37:09.560Z,37.60
2018-02-21T02:38:29.727Z,40.60
2018-02-21T02:39:49.715Z,42.92
2018-02-21T02:40:53.566Z,40.03
2018-02-21T02:41:56.635Z,38.45
2018-02-21T02:43:00.165Z,41.05
2018-02-21T02:44:01.574Z,40.53
2018-02-21T02:45:02.979Z,40.42
2018-02-21T02:46:04.675Z,47.83
2018-02-21T02:47:07.216Z,43.38
2018-02-21T02:48:08.615Z,47.62
2018-02-21T02:49:10.008Z,43.05
2018-02-21T02:50:11.410Z,39.22
2018-02-21T02:51:14.037Z,44.30
2018-02-21T02:52:16.300Z,39.88
2018-02-21T02:53:17.948Z,39.30
2018-02-21T02:54:23.443Z,41.08
2018-02-21T02:55:26.186Z,44.47
2018-02-21T02:56:28.134Z,44.92
2018-02-21T02:57:29.860Z,45.00
2018-02-21T02:58:31.257Z,48.70
2018-02-21T02:59:32.645Z,44.78
2018-02-21T03:00:34.048Z,48.05
2018-02-21T03:01:35.747Z,53.35
2018-02-21T03:02:37.128Z,45.03
2018-02-21T03:03:39.260Z,46.95
2018-02-21T03:04:40.660Z,46.92
2018-02-21T03:05:44.004Z,44.83
2018-02-21T03:06:46.119Z,48.58
2018-02-21T03:07:47.823Z,47.00
2018-02-21T03:08:49.217Z,44.92
2018-02-21T03:09:53.287Z,44.95
2018-02-21T03:10:55.439Z,45.10
2018-02-21T03:11:57.274Z,43.58
2018-02-21T03:12:58.985Z,44.23
2018-02-21T03:14:00.394Z,44.10
2018-02-21T03:15:03.315Z,42.85
2018-02-21T03:16:04.759Z,44.15
2018-02-21T03:17:07.909Z,46.85
2018-02-21T03:18:09.291Z,45.85
2018-02-21T03:19:10.673Z,41.35
2018-02-21T03:20:12.093Z,44.58
2018-02-21T03:21:13.519Z,38.60
2018-02-21T03:22:15.735Z,40.75
2018-02-21T03:23:17.216Z,38.55
2018-02-21T03:24:18.635Z,41.53
2018-02-21T03:25:23.187Z,39.78
2018-02-21T03:26:25.847Z,37.40
2018-02-21T03:27:28.150Z,36.88
2018-02-21T03:28:29.581Z,40.53
2018-02-21T03:29:30.999Z,37.85
2018-02-21T03:30:33.152Z,37.70
2018-02-21T03:31:34.601Z,39.70
2018-02-21T03:32:36.032Z,39.42
2018-02-21T03:33:37.434Z,40.53
2018-02-21T03:34:39.586Z,40.33
2018-02-21T03:35:40.974Z,40.05
2018-02-21T03:36:42.365Z,39.97
2018-02-21T03:37:43.916Z,40.20
2018-02-21T03:38:46.221Z,42.25
2018-02-21T03:39:47.956Z,43.75
2018-02-21T03:40:49.361Z,45.17
2018-02-21T03:41:53.222Z,41.60
2018-02-21T03:42:56.159Z,41.37
2018-02-21T03:43:58.307Z,38.33
2018-02-21T03:45:00.036Z,39.80
2018-02-21T03:46:01.439Z,35.72
2018-02-21T03:47:02.869Z,36.03
2018-02-21T03:48:06.351Z,33.15
2018-02-21T03:49:07.741Z,33.72
2018-02-21T03:50:09.160Z,33.17
2018-02-21T03:51:10.567Z,34.17
2018-02-21T03:52:11.961Z,34.27
2018-02-21T03:53:13.762Z,34.90
2018-02-21T03:54:16.751Z,32.85
2018-02-21T03:55:18.198Z,29.95
2018-02-21T03:56:24.420Z,33.97
2018-02-21T03:57:26.705Z,32.93
2018-02-21T03:58:29.713Z,33.47
2018-02-21T03:59:31.147Z,33.28
2018-02-21T04:00:32.535Z,31.83
2018-02-21T04:01:33.926Z,34.67
2018-02-21T04:02:35.327Z,32.67
2018-02-21T04:03:36.747Z,31.15
2018-02-21T04:04:38.152Z,33.88
2018-02-21T04:05:39.547Z,36.72
2018-02-21T04:06:40.949Z,29.98
2018-02-21T04:08:09.145Z,35.95
2018-02-21T04:09:10.544Z,34.80
2018-02-21T04:10:12.742Z,33.67
2018-02-21T04:11:14.607Z,33.92
2018-02-21T04:12:16.579Z,29.57
2018-02-21T04:13:17.993Z,31.60
2018-02-21T04:14:19.671Z,33.38
2018-02-21T04:15:23.498Z,34.47
2018-02-21T04:16:26.775Z,32.35
2018-02-21T04:17:28.617Z,32.43
2018-02-21T04:18:30.807Z,35.08
2018-02-21T04:19:32.955Z,35.10
2018-02-21T04:20:34.351Z,30.00
2018-02-21T04:21:35.743Z,31.50
2018-02-21T04:22:37.121Z,34.08
2018-02-21T04:23:39.276Z,34.45
2018-02-21T04:24:40.824Z,32.40
2018-02-21T04:25:42.517Z,32.92
2018-02-21T04:26:44.331Z,34.57
2018-02-21T04:27:45.981Z,31.70
2018-02-21T04:28:47.375Z,32.47
2018-02-21T04:29:48.788Z,30.55
2018-02-21T04:30:50.863Z,32.45
2018-02-21T04:31:53.073Z,34.03
2018-02-21T04:32:54.975Z,32.08
2018-02-21T04:33:56.667Z,34.80
2018-02-21T04:34:58.507Z,31.40
2018-02-21T04:36:00.641Z,31.08
2018-02-21T04:37:02.040Z,34.03
2018-02-21T04:38:04.186Z,31.67
2018-02-21T04:39:05.576Z,33.10
2018-02-21T04:40:07.295Z,28.83
2018-02-21T04:41:08.709Z,30.45
2018-02-21T04:42:10.944Z,31.67
2018-02-21T04:43:13.397Z,37.35
2018-02-21T04:44:15.916Z,33.00
2018-02-21T04:45:18.072Z,35.92
2018-02-21T04:46:22.524Z,32.80
2018-02-21T04:47:24.843Z,31.97
2018-02-21T04:48:26.539Z,31.40
2018-02-21T04:49:28.039Z,33.00
2018-02-21T04:50:29.861Z,30.70
2018-02-21T04:51:31.998Z,32.53
2018-02-21T04:52:33.435Z,31.10
2018-02-21T04:53:34.857Z,30.02
2018-02-21T04:56:32.953Z,32.03
2018-02-21T04:57:51.463Z,31.42
2018-02-21T04:58:55.744Z,30.88
2018-02-21T04:59:57.559Z,32.47
2018-02-21T05:00:59.027Z,32.97
2018-02-21T05:02:00.739Z,28.52
2018-02-21T05:03:02.134Z,31.87
2018-02-21T05:04:03.543Z,31.80
2018-02-21T05:05:39.801Z,29.83
2018-02-21T05:06:41.960Z,30.58
2018-02-21T05:07:43.687Z,31.20
2018-02-21T05:08:45.966Z,29.17
2018-02-21T05:09:47.364Z,33.22
2018-02-21T05:10:48.757Z,31.00
2018-02-21T05:11:51.924Z,29.73
2018-02-21T05:12:54.601Z,29.90
2018-02-21T05:13:56.939Z,30.27
2018-02-21T05:14:58.358Z,35.70
2018-02-21T05:16:00.858Z,34.20
2018-02-21T05:17:02.254Z,32.35
2018-02-21T05:18:03.662Z,37.72
2018-02-21T05:19:05.785Z,38.80
2018-02-21T05:20:07.206Z,36.45
2018-02-21T05:21:08.605Z,36.70
2018-02-21T05:22:10.739Z,37.15
2018-02-21T05:23:12.429Z,41.33
2018-02-21T05:24:15.079Z,38.60
2018-02-21T05:25:17.254Z,37.55
2018-02-21T05:26:18.669Z,39.85
2018-02-21T05:27:22.033Z,42.03
2018-02-21T05:28:25.057Z,38.53
2018-02-21T05:29:26.693Z,37.15
2018-02-21T05:30:28.128Z,38.58
2018-02-21T05:31:29.545Z,39.25
2018-02-21T05:32:31.018Z,38.22
2018-02-21T05:33:32.422Z,38.47
2018-02-21T05:34:33.819Z,37.40
2018-02-21T05:35:35.267Z,39.35
2018-02-21T05:36:36.673Z,38.85
2018-02-21T05:37:38.069Z,38.60
2018-02-21T05:38:39.505Z,37.87
2018-02-21T05:39:40.892Z,38.67
2018-02-21T05:40:42.290Z,38.38
2018-02-21T05:41:44.143Z,36.63
2018-02-21T05:42:45.926Z,40.40
2018-02-21T05:44:50.885Z,38.60
2018-02-21T05:45:53.628Z,34.20
2018-02-21T05:46:55.510Z,40.15
2018-02-21T05:47:57.942Z,36.70
2018-02-21T05:48:59.363Z,36.50
2018-02-21T05:50:01.139Z,35.58
2018-02-21T05:51:02.533Z,36.72
2018-02-21T05:52:29.725Z,36.03
2018-02-21T05:53:31.144Z,37.05
2018-02-21T05:54:32.538Z,36.30
2018-02-21T05:55:33.957Z,38.13
2018-02-21T05:56:35.414Z,35.50
2018-02-21T05:57:36.807Z,35.28
2018-02-21T05:58:38.959Z,37.40
2018-02-21T05:59:40.340Z,36.63
2018-02-21T06:00:41.751Z,35.37
2018-02-21T06:01:43.433Z,36.50
2018-02-21T06:02:45.300Z,33.47
2018-02-21T06:03:47.237Z,35.75
2018-02-21T06:04:48.637Z,34.67
2018-02-21T06:05:52.503Z,33.97
2018-02-21T06:06:55.552Z,35.65
2018-02-21T06:07:57.291Z,38.67
2018-02-21T06:08:58.723Z,40.53
2018-02-21T06:10:00.105Z,40.53
2018-02-21T06:11:01.511Z,35.97
2018-02-21T06:12:02.915Z,39.63
2018-02-21T06:13:04.310Z,40.67
2018-02-21T06:14:05.694Z,38.08
2018-02-21T06:15:07.090Z,39.00
2018-02-21T06:16:08.623Z,36.00
2018-02-21T06:17:10.777Z,37.53
2018-02-21T06:18:12.171Z,36.05
2018-02-21T06:19:13.902Z,35.97
2018-02-21T06:20:17.259Z,41.08
2018-02-21T06:21:19.021Z,38.63
2018-02-21T06:22:23.133Z,35.08
2018-02-21T06:23:25.979Z,33.72
2018-02-21T06:24:29.126Z,36.38
2018-02-21T06:25:31.311Z,34.25
2018-02-21T06:26:34.477Z,33.47
2018-02-21T06:27:35.888Z,38.53
2018-02-21T06:28:37.274Z,37.80
2018-02-21T06:29:38.669Z,35.25
2018-02-21T06:30:41.883Z,38.67
2018-02-21T06:32:36.173Z,38.13
2018-02-21T06:33:39.205Z,38.35
2018-02-21T06:34:40.827Z,35.67
2018-02-21T06:35:42.417Z,33.78
2018-02-21T06:36:44.183Z,35.72
2018-02-21T06:37:46.907Z,33.67
2018-02-21T06:38:48.463Z,36.13
2018-02-21T06:39:50.698Z,35.87
2018-02-21T06:40:55.537Z,37.70
2018-02-21T06:41:58.354Z,33.60
2018-02-21T06:43:01.146Z,33.00
2018-02-21T06:44:02.614Z,34.78
2018-02-21T06:45:04.328Z,35.90
2018-02-21T06:46:06.755Z,37.63
2018-02-21T06:47:08.271Z,39.42
2018-02-21T06:48:09.914Z,38.50
2018-02-21T06:49:11.434Z,36.60
2018-02-21T06:50:12.987Z,38.65
2018-02-21T06:51:15.026Z,35.28
2018-02-21T06:52:18.009Z,40.87
2018-02-21T06:53:19.873Z,37.20
2018-02-21T06:54:24.341Z,34.00
2018-02-21T06:55:26.279Z,38.78
2018-02-21T06:56:28.172Z,36.17
2018-02-21T06:57:29.693Z,35.92
2018-02-21T06:58:31.249Z,33.00
2018-02-21T06:59:32.830Z,34.73
2018-02-21T07:00:34.356Z,36.13
2018-02-21T07:01:35.938Z,36.20
2018-02-21T07:02:37.340Z,33.78
2018-02-21T07:03:39.489Z,34.00
2018-02-21T07:04:40.882Z,35.72
2018-02-21T07:05:42.257Z,35.27
2018-02-21T07:06:44.034Z,35.10
2018-02-21T07:07:45.719Z,40.20
2018-02-21T07:08:48.617Z,36.85
2018-02-21T07:09:51.951Z,35.15
2018-02-21T07:10:54.475Z,36.23
2018-02-21T07:11:56.580Z,35.97
2018-02-21T07:12:58.487Z,39.17
2018-02-21T07:14:01.669Z,35.97
2018-02-21T07:15:03.085Z,36.38
2018-02-21T07:16:06.218Z,37.17
2018-02-21T07:17:07.609Z,34.75
2018-02-21T07:18:08.997Z,34.50
2018-02-21T07:19:11.535Z,38.37
2018-02-21T07:20:12.917Z,34.70
2018-02-21T07:21:16.397Z,33.90
2018-02-21T07:22:17.797Z,35.13
2018-02-21T07:23:19.188Z,33.65
2018-02-21T07:24:23.305Z,39.03
2018-02-21T07:25:26.119Z,32.10
2018-02-21T07:26:29.426Z,32.53
2018-02-21T07:27:30.986Z,36.83
2018-02-21T07:28:34.265Z,34.47
2018-02-21T07:29:36.857Z,36.10
2018-02-21T07:30:40.046Z,35.95
2018-02-21T07:31:41.577Z,35.27
2018-02-21T07:32:43.383Z,36.22
2018-02-21T07:33:47.318Z,36.55
2018-02-21T07:34:51.050Z,39.03
2018-02-21T07:35:54.217Z,37.10
2018-02-21T07:36:56.644Z,38.97
2018-02-21T07:37:58.642Z,35.35
2018-02-21T07:39:01.861Z,36.40
2018-02-21T07:40:04.117Z,40.38
2018-02-21T07:41:05.611Z,37.90
2018-02-21T07:42:07.010Z,38.53
2018-02-21T07:43:08.413Z,33.47
2018-02-21T07:44:10.962Z,33.53
2018-02-21T07:45:12.397Z,35.60
2018-02-21T07:46:14.128Z,35.60
2018-02-21T07:47:16.185Z,35.13
2018-02-21T07:48:19.309Z,38.93
2018-02-21T07:49:22.956Z,37.58
2018-02-21T07:50:25.096Z,38.20
2018-02-21T07:51:26.759Z,40.22
2018-02-21T07:52:28.213Z,36.13
2018-02-21T07:53:29.637Z,36.45
2018-02-21T07:54:31.026Z,36.15
2018-02-21T07:55:32.421Z,37.13
2018-02-21T07:56:34.545Z,36.53
2018-02-21T07:57:35.942Z,36.80
2018-02-21T07:58:37.330Z,36.13
2018-02-21T07:59:40.448Z,34.63
2018-02-21T08:00:41.868Z,34.43
2018-02-21T08:01:43.517Z,36.03
2018-02-21T08:02:46.438Z,34.40
2018-02-21T08:03:48.581Z,38.53
2018-02-21T08:04:50.275Z,35.80
2018-02-21T08:05:53.281Z,37.88
2018-02-21T08:06:56.855Z,34.75
2018-02-21T08:07:58.641Z,36.90
2018-02-21T08:09:00.038Z,38.03
2018-02-21T08:10:01.452Z,37.10
2018-02-21T08:11:02.877Z,38.42
2018-02-21T08:12:04.282Z,33.08
2018-02-21T08:13:05.678Z,36.47
2018-02-21T08:14:07.061Z,37.72
2018-02-21T08:15:08.479Z,35.30
2018-02-21T08:16:10.887Z,34.37
2018-02-21T08:17:12.490Z,33.47
2018-02-21T08:18:15.921Z,37.78
2018-02-21T08:19:18.500Z,36.67
2018-02-21T08:20:22.947Z,36.80
2018-02-21T08:21:26.357Z,37.10
2018-02-21T08:22:28.173Z,40.07
2018-02-21T08:23:31.293Z,36.67
2018-02-21T08:24:34.401Z,37.60
2018-02-21T08:25:35.805Z,35.47
2018-02-21T08:26:37.241Z,38.67
2018-02-21T08:27:38.636Z,34.70
2018-02-21T08:28:40.754Z,42.10
2018-02-21T08:29:42.137Z,37.73
2018-02-21T08:30:44.455Z,41.10
2018-02-21T08:31:46.078Z,38.72
2018-02-21T08:32:48.649Z,36.78
2018-02-21T08:33:50.476Z,41.90
2018-02-21T08:34:53.841Z,41.57
2018-02-21T08:35:56.095Z,38.97
2018-02-21T08:36:59.599Z,36.83
2018-02-21T08:38:00.982Z,38.57
2018-02-21T08:39:02.438Z,35.95
2018-02-21T08:40:03.829Z,41.23
2018-02-21T08:41:06.913Z,41.23
2018-02-21T08:42:09.449Z,42.25
2018-02-21T08:43:10.835Z,35.65
2018-02-21T08:44:12.979Z,39.57
2018-02-21T08:45:14.896Z,39.57
2018-02-21T08:46:16.663Z,41.27
2018-02-21T08:47:18.112Z,36.40
2018-02-21T08:48:19.534Z,38.28
2018-02-21T08:49:24.150Z,37.50
2018-02-21T08:50:27.062Z,44.10
2018-02-21T08:51:29.864Z,39.27
2018-02-21T08:52:31.551Z,38.92
2018-02-21T08:53:34.659Z,43.60
2018-02-21T08:54:37.533Z,38.92
2018-02-21T08:55:40.629Z,36.40
2018-02-21T08:56:43.505Z,37.13
2018-02-21T08:57:46.931Z,36.15
2018-02-21T08:58:48.397Z,39.67
2018-02-21T08:59:53.071Z,39.13
2018-02-21T09:00:56.725Z,36.63
2018-02-21T09:02:00.022Z,36.08
2018-02-21T09:03:01.433Z,37.85
2018-02-21T09:04:02.839Z,36.78
2018-02-21T09:05:04.249Z,39.03
2018-02-21T09:06:06.381Z,36.63
2018-02-21T09:07:08.502Z,38.77
2018-02-21T09:08:10.198Z,35.10
2018-02-21T09:09:11.614Z,39.40
2018-02-21T09:10:13.001Z,38.53
2018-02-21T09:11:59.502Z,37.93
2018-02-21T09:13:02.605Z,35.87
2018-02-21T09:14:04.026Z,34.13
2018-02-21T09:15:06.165Z,37.00
2018-02-21T09:16:10.272Z,36.67
2018-02-21T09:17:11.684Z,33.70
2018-02-21T09:19:00.882Z,37.80
2018-02-21T09:21:51.762Z,36.78
2018-02-21T09:22:56.220Z,37.70
2018-02-21T09:23:58.063Z,36.03
2018-02-21T09:25:01.206Z,35.63
2018-02-21T09:26:02.597Z,33.22
2018-02-21T09:27:04.032Z,37.60
2018-02-21T09:28:05.428Z,37.95
2018-02-21T09:29:07.569Z,35.95
2018-02-21T09:30:10.710Z,41.53
2018-02-21T09:31:12.102Z,35.55
2018-02-21T09:32:14.042Z,37.58
2018-02-21T09:33:17.274Z,40.35
2018-02-21T09:34:18.688Z,40.33
2018-02-21T09:35:22.741Z,43.58
2018-02-21T09:36:26.494Z,36.05
2018-02-21T09:37:28.778Z,41.80
2018-02-21T09:38:30.274Z,41.25
2018-02-21T09:39:31.676Z,41.22
2018-02-21T09:40:33.061Z,41.95
2018-02-21T09:41:35.580Z,38.20
2018-02-21T09:42:38.753Z,36.08
2018-02-21T09:43:40.153Z,38.30
2018-02-21T09:44:41.573Z,34.53
2018-02-21T09:45:44.983Z,41.88
2018-02-21T09:46:46.897Z,46.78
2018-02-21T09:47:48.621Z,42.67
2018-02-21T09:48:52.181Z,40.53
2018-02-21T09:49:56.229Z,39.42
2018-02-21T09:52:18.574Z,39.13
2018-02-21T09:53:21.295Z,39.63
2018-02-21T09:54:25.802Z,40.73
2018-02-21T09:55:29.271Z,38.15
2018-02-21T09:56:32.417Z,40.90
2018-02-21T09:57:34.557Z,44.63
2018-02-21T09:58:35.973Z,44.13
2018-02-21T09:59:37.354Z,48.13
2018-02-21T10:00:38.750Z,47.95
2018-02-21T10:01:41.634Z,45.45
2018-02-21T10:02:44.897Z,42.65
2018-02-21T10:03:46.826Z,40.95
2018-02-21T10:04:48.301Z,46.43
2018-02-21T10:05:53.813Z,43.13
2018-02-21T10:06:56.461Z,42.78
2018-02-21T10:07:58.920Z,43.60
2018-02-21T10:09:00.369Z,43.03
2018-02-21T10:10:03.467Z,46.87
2018-02-21T10:11:06.573Z,45.77
2018-02-21T10:12:08.699Z,41.47
2018-02-21T10:13:10.834Z,48.22
2018-02-21T10:14:57.956Z,43.13
2018-02-21T10:15:59.658Z,46.58
2018-02-21T10:17:01.058Z,39.63
2018-02-21T10:18:03.574Z,44.67
2018-02-21T10:19:04.976Z,41.00
2018-02-21T10:20:06.658Z,40.60
2018-02-21T10:21:09.552Z,42.95
2018-02-21T10:22:10.940Z,42.55
2018-02-21T10:23:12.354Z,40.53
2018-02-21T10:24:16.091Z,44.33
2018-02-21T10:25:19.238Z,47.10
2018-02-21T10:26:23.357Z,43.17
2018-02-21T10:27:26.922Z,44.70
2018-02-21T10:28:30.162Z,42.33
2018-02-21T10:29:31.562Z,43.23
2018-02-21T10:30:33.214Z,44.40
2018-02-21T10:31:34.606Z,43.50
2018-02-21T10:32:36.750Z,40.80
2018-02-21T10:33:38.206Z,46.35
2018-02-21T10:34:39.602Z,45.07
2018-02-21T10:35:41.780Z,46.23
2018-02-21T10:37:04.533Z,48.67
2018-02-21T10:38:05.944Z,42.58
2018-02-21T10:39:07.329Z,40.93
2018-02-21T10:40:08.980Z,44.80
2018-02-21T10:41:13.541Z,42.62
2018-02-21T10:42:16.444Z,43.08
2018-02-21T10:43:18.732Z,45.65
2018-02-21T10:45:51.878Z,38.97
2018-02-21T10:46:54.948Z,42.75
2018-02-21T10:47:58.499Z,45.28
2018-02-21T10:49:00.976Z,44.43
2018-02-21T10:50:02.554Z,45.12
2018-02-21T10:51:05.698Z,44.60
2018-02-21T10:52:07.101Z,44.13
2018-02-21T10:53:08.515Z,40.47
2018-02-21T10:54:10.654Z,43.13
2018-02-21T10:55:12.786Z,40.40
2018-02-21T10:56:14.887Z,42.20
2018-02-21T10:57:17.540Z,45.93
2018-02-21T10:58:20.838Z,43.38
2018-02-21T10:59:27.540Z,47.15
2018-02-21T11:00:37.089Z,45.67
2018-02-21T11:01:40.189Z,41.33
2018-02-21T11:02:41.602Z,44.10
2018-02-21T11:03:44.029Z,47.15
2018-02-21T11:04:47.380Z,46.37
2018-02-21T11:05:53.222Z,43.20
2018-02-21T11:06:56.847Z,40.60
2018-02-21T11:07:59.006Z,45.95
2018-02-21T11:09:00.454Z,42.75
2018-02-21T11:10:03.558Z,40.83
2018-02-21T11:11:06.713Z,42.05
2018-02-21T11:12:08.814Z,46.63
2018-02-21T11:13:11.294Z,44.10
2018-02-21T11:14:13.966Z,45.35
2018-02-21T11:15:17.532Z,41.03
2018-02-21T11:16:18.927Z,46.67
2018-02-21T11:18:45.902Z,37.42
2018-02-21T11:19:47.974Z,40.90
2018-02-21T11:20:49.366Z,39.97
2018-02-21T11:21:55.281Z,41.00
2018-02-21T11:24:25.932Z,39.87
2018-02-21T11:25:27.954Z,39.07
2018-02-21T11:26:31.153Z,41.05
2018-02-21T11:27:34.257Z,40.53
2018-02-21T11:28:35.643Z,43.38
2018-02-21T11:29:37.301Z,42.10
2018-02-21T11:30:38.716Z,40.38
2018-02-21T11:31:40.125Z,44.10
2018-02-21T11:32:41.522Z,42.83
2018-02-21T11:33:42.942Z,39.22
2018-02-21T11:34:46.948Z,41.35
2018-02-21T11:35:48.457Z,41.15
2018-02-21T11:36:56.446Z,39.10
2018-02-21T11:37:58.717Z,41.78
2018-02-21T11:39:00.394Z,40.80
2018-02-21T11:40:01.834Z,44.90
2018-02-21T11:41:03.275Z,40.25
2018-02-21T11:42:05.414Z,36.70
2018-02-21T11:43:07.545Z,42.45
2018-02-21T11:44:10.658Z,39.28
2018-02-21T11:45:12.124Z,37.63
2018-02-21T11:47:01.262Z,38.70
2018-02-21T11:48:02.670Z,39.85
2018-02-21T11:49:05.753Z,38.92
2018-02-21T11:50:07.140Z,40.80
2018-02-21T11:51:08.915Z,39.50
2018-02-21T11:52:10.306Z,42.53
2018-02-21T11:53:11.708Z,37.67
2018-02-21T11:54:14.136Z,40.35
2018-02-21T11:55:16.601Z,41.47
2018-02-21T11:56:21.192Z,38.08
2018-02-21T11:57:25.806Z,44.33
2018-02-21T11:58:28.194Z,39.83
2018-02-21T11:59:30.206Z,40.90
2018-02-21T12:00:31.606Z,38.17
2018-02-21T12:01:34.736Z,36.27
2018-02-21T12:02:36.118Z,40.72
2018-02-21T12:03:38.621Z,42.08
2018-02-21T12:04:40.817Z,38.57
2018-02-21T12:05:44.589Z,40.97
2018-02-21T12:06:47.845Z,42.38
2018-02-21T12:08:36.814Z,39.33
2018-02-21T12:09:38.202Z,37.30
2018-02-21T12:10:40.342Z,42.17
2018-02-21T12:11:41.738Z,39.08
2018-02-21T12:12:43.696Z,38.15
2018-02-21T12:13:46.817Z,39.80
2018-02-21T12:14:48.462Z,37.77
2018-02-21T12:15:51.640Z,41.35
2018-02-21T12:16:56.693Z,40.63
2018-02-21T12:17:58.769Z,37.85
2018-02-21T12:19:00.437Z,41.80
2018-02-21T12:20:02.981Z,37.75
2018-02-21T12:21:04.381Z,38.43
2018-02-21T12:22:07.482Z,38.73
2018-02-21T12:23:08.910Z,41.28
2018-02-21T12:24:11.418Z,38.33
2018-02-21T12:25:12.857Z,41.22
2018-02-21T12:26:16.572Z,41.72
2018-02-21T12:27:18.778Z,40.42
2018-02-21T12:28:21.954Z,39.33
2018-02-21T12:29:25.966Z,41.03
2018-02-21T12:30:28.160Z,39.08
2018-02-21T12:31:30.729Z,40.88
2018-02-21T12:32:32.894Z,38.22
2018-02-21T12:33:34.317Z,41.30
2018-02-21T12:34:36.870Z,37.67
2018-02-21T12:35:38.252Z,38.42
2018-02-21T12:37:07.637Z,38.47
2018-02-21T12:39:05.018Z,41.47
2018-02-21T12:40:06.430Z,36.13
2018-02-21T12:42:48.842Z,36.15
2018-02-21T12:43:53.282Z,39.85
2018-02-21T12:44:57.175Z,41.13
2018-02-21T12:45:59.854Z,36.58
2018-02-21T12:47:02.952Z,39.10
2018-02-21T12:48:05.484Z,35.00
2018-02-21T12:49:06.877Z,41.07
2018-02-21T12:50:08.354Z,38.90
2018-02-21T12:51:10.469Z,38.75
2018-02-21T12:52:11.858Z,33.97
2018-02-21T12:53:13.267Z,34.65
2018-02-21T12:54:16.746Z,35.03
2018-02-21T12:55:21.824Z,37.20
2018-02-21T12:56:25.162Z,42.42
2018-02-21T12:57:28.414Z,38.30
2018-02-21T12:58:31.586Z,43.42
2018-02-21T12:59:34.090Z,39.03
2018-02-21T13:00:35.517Z,38.33
2018-02-21T13:01:38.639Z,38.47
2018-02-21T13:02:40.010Z,38.80
2018-02-21T13:03:41.410Z,35.70
2018-02-21T13:04:44.076Z,39.60
2018-02-21T13:05:46.324Z,39.13
2018-02-21T13:06:48.170Z,38.03
2018-02-21T13:07:53.215Z,38.50
2018-02-21T13:08:57.077Z,40.00
2018-02-21T13:09:59.134Z,39.55
2018-02-21T13:11:00.890Z,38.30
2018-02-21T13:12:02.286Z,35.53
2018-02-21T13:13:04.406Z,37.13
2018-02-21T13:14:05.811Z,37.75
2018-02-21T13:15:07.218Z,38.13
2018-02-21T13:16:08.986Z,40.38
2018-02-21T13:17:10.374Z,39.57
2018-02-21T13:18:14.880Z,42.03
2018-02-21T13:19:16.794Z,43.27
2018-02-21T13:20:18.422Z,39.53
2018-02-21T13:21:21.291Z,39.63
2018-02-21T13:22:26.296Z,40.03
2018-02-21T13:23:28.115Z,39.53
2018-02-21T13:24:31.055Z,43.07
2018-02-21T13:25:32.448Z,39.42
2018-02-21T13:26:34.118Z,39.00
2018-02-21T13:27:35.506Z,40.70
2018-02-21T13:28:38.629Z,38.78
2018-02-21T13:29:40.019Z,36.17
2018-02-21T13:30:42.150Z,42.53
2018-02-21T13:31:43.912Z,38.30
2018-02-21T13:32:46.116Z,37.60
2018-02-21T13:33:49.249Z,42.30
2018-02-21T13:34:54.878Z,44.53
2018-02-21T13:35:58.473Z,39.85
2018-02-21T13:37:01.384Z,39.85
2018-02-21T13:38:02.828Z,40.00
2018-02-21T13:39:05.338Z,36.83
2018-02-21T13:40:07.842Z,41.72
2018-02-21T13:41:09.253Z,35.95
2018-02-21T13:42:11.398Z,41.40
2018-02-21T13:43:12.818Z,41.13
2018-02-21T13:44:14.674Z,37.63
2018-02-21T13:45:18.146Z,38.45
2018-02-21T13:46:22.805Z,38.55
2018-02-21T13:47:26.524Z,36.85
2018-02-21T13:48:31.210Z,37.93
2018-02-21T13:49:32.599Z,36.13
2018-02-21T13:50:35.720Z,37.47
2018-02-21T13:51:37.127Z,35.90
2018-02-21T13:52:40.248Z,39.60
2018-02-21T13:53:41.631Z,42.37
2018-02-21T13:54:43.845Z,39.13
2018-02-21T13:55:46.197Z,43.50
2018-02-21T13:56:48.037Z,46.95
2018-02-21T13:57:51.328Z,46.27
2018-02-21T13:58:56.213Z,42.72
2018-02-21T13:59:58.294Z,43.65
2018-02-21T14:01:00.070Z,41.00
2018-02-21T14:02:01.469Z,40.85
2018-02-21T14:03:02.893Z,42.65
2018-02-21T14:04:04.287Z,42.10
2018-02-21T14:05:05.698Z,44.13
2018-02-21T14:06:07.878Z,40.85
2018-02-21T14:07:09.277Z,44.03
2018-02-21T14:08:10.695Z,44.43
2018-02-21T14:09:13.882Z,44.75
2018-02-21T14:10:16.162Z,44.30
2018-02-21T14:11:19.297Z,40.13
2018-02-21T14:12:24.794Z,45.58
2018-02-21T14:13:27.000Z,42.90
2018-02-21T14:14:28.876Z,43.35
2018-02-21T14:15:32.045Z,43.63
2018-02-21T14:16:33.455Z,41.70
2018-02-21T14:17:34.871Z,47.42